Time;durP1;ratioP1;P1;durP2;ratioP2;P2;SDS_P1;SDS_P2;PMS_P1;PMS_P2;Temp;Humidity;BMP_temperature;BMP_pressure;BME280_temperature;BME280_humidity;BME280_pressure;Samples;Min_cycle;Max_cycle;Signal;HPM_P1;HPM_P2
2022/12/16 00:00:08;;;;;;;;;;;-0.30;99.90;;;;;;5045183;28;19932;-78
2022/12/16 00:02:35;;;;;;;;;;;-0.30;99.90;;;;;;5044106;28;20434;-78
2022/12/16 00:05:03;;;;;;;;;;;-0.30;99.90;;;;;;5046577;28;19935;-79
2022/12/16 00:07:29;;;;;;;;;;;-0.30;99.90;;;;;;5041341;28;19947;-79
2022/12/16 00:09:56;;;;;;;;;;;-0.30;99.90;;;;;;5035190;28;20410;-78
2022/12/16 00:12:22;;;;;;;;;;;-0.30;99.90;;;;;;5042836;28;20418;-78
2022/12/16 00:14:49;;;;;;;;;;;-0.30;99.90;;;;;;5043294;28;19933;-79
2022/12/16 00:17:15;;;;;;;;;;;-0.30;99.90;;;;;;5036998;28;19936;-78
2022/12/16 00:19:42;;;;;;;;;;;-0.30;99.90;;;;;;5041998;28;19936;-78
2022/12/16 00:22:10;;;;;;;;;;;-0.30;99.90;;;;;;5042113;28;19939;-78
2022/12/16 00:24:37;;;;;;;;;;;-0.30;99.90;;;;;;5041093;28;19936;-78
2022/12/16 00:27:03;;;;;;;;;;;-0.30;99.90;;;;;;5039688;28;19924;-79
2022/12/16 00:29:30;;;;;;;;;;;-0.30;99.90;;;;;;5042368;28;19936;-78
2022/12/16 00:31:56;;;;;;;;;;;-0.40;99.90;;;;;;5040281;28;19932;-78
2022/12/16 00:34:23;;;;;;;;;;;-0.30;99.90;;;;;;5045031;28;19932;-79
2022/12/16 00:36:49;;;;;;;;;;;-0.30;99.90;;;;;;5042889;28;19935;-78
2022/12/16 00:39:17;;;;;;;;;;;-0.30;99.90;;;;;;5038481;28;19937;-78
2022/12/16 00:41:46;;;;;;;;;;;-0.30;99.90;;;;;;5042105;28;19929;-78
2022/12/16 00:44:13;;;;;;;;;;;-0.30;99.90;;;;;;5045402;28;19940;-78
2022/12/16 00:46:39;;;;;;;;;;;-0.30;99.90;;;;;;5041833;28;19925;-76
2022/12/16 00:49:06;;;;;;;;;;;-0.30;99.90;;;;;;5043112;28;19960;-76
2022/12/16 00:51:32;;;;;;;;;;;-0.30;99.90;;;;;;5043706;28;19928;-78
2022/12/16 00:53:59;;;;;;;;;;;-0.30;99.90;;;;;;5042170;28;19933;-78
2022/12/16 00:56:27;;;;;;;;;;;-0.30;99.90;;;;;;5039907;28;19929;-78
2022/12/16 00:58:53;;;;;;;;;;;-0.30;99.90;;;;;;5042389;28;19930;-78
2022/12/16 01:01:20;;;;;;;;;;;-0.40;99.90;;;;;;5043448;28;19939;-78
2022/12/16 01:03:46;;;;;;;;;;;-0.30;99.90;;;;;;5044739;28;19940;-78
2022/12/16 01:06:14;;;;;;;;;;;-0.40;99.90;;;;;;5043923;28;19929;-79
2022/12/16 01:08:47;;;;;;;;;;;-0.40;99.90;;;;;;5038460;28;19933;-79
2022/12/16 01:11:14;;;;;;;;;;;-0.30;99.90;;;;;;5045645;28;19933;-78
2022/12/16 01:13:42;;;;;;;;;;;-0.30;99.90;;;;;;5045632;28;19928;-78
2022/12/16 01:16:08;;;;;;;;;;;-0.40;99.90;;;;;;5047071;28;19932;-79
2022/12/16 01:18:35;;;;;;;;;;;-0.40;99.90;;;;;;5045826;28;19929;-79
2022/12/16 01:21:02;;;;;;;;;;;-0.40;99.90;;;;;;5047326;28;19933;-78
2022/12/16 01:23:28;;;;;;;;;;;-0.40;99.90;;;;;;5044212;28;19928;-79
2022/12/16 01:25:58;;;;;;;;;;;-0.40;99.90;;;;;;5044159;28;19929;-76
2022/12/16 01:28:24;;;;;;;;;;;-0.40;99.90;;;;;;5039943;28;19931;-78
2022/12/16 01:31:00;;;;;;;;;;;-0.40;99.90;;;;;;5044598;28;19971;-78
2022/12/16 01:33:27;;;;;;;;;;;-0.40;99.90;;;;;;5043529;28;19951;-78
2022/12/16 01:35:58;;;;;;;;;;;-0.40;99.90;;;;;;5043363;28;19933;-78
2022/12/16 01:38:24;;;;;;;;;;;-0.40;99.90;;;;;;5045211;28;19929;-79
2022/12/16 01:40:51;;;;;;;;;;;-0.40;99.90;;;;;;5046064;28;20712;-76
2022/12/16 01:43:18;;;;;;;;;;;-0.40;99.90;;;;;;5045930;28;19933;-78
2022/12/16 01:45:45;;;;;;;;;;;-0.40;99.90;;;;;;5045504;28;19929;-78
2022/12/16 01:48:18;;;;;;;;;;;-0.40;99.90;;;;;;5045077;28;19980;-78
2022/12/16 01:50:45;;;;;;;;;;;-0.40;99.90;;;;;;5045827;28;19933;-78
2022/12/16 01:53:12;;;;;;;;;;;-0.40;99.90;;;;;;5045390;28;19940;-78
2022/12/16 01:55:41;;;;;;;;;;;-0.40;99.90;;;;;;5043097;28;19998;-78
2022/12/16 01:58:09;;;;;;;;;;;-0.40;99.90;;;;;;5045300;28;20036;-78
2022/12/16 02:00:37;;;;;;;;;;;-0.40;99.90;;;;;;5044964;28;19971;-78
2022/12/16 02:03:03;;;;;;;;;;;-0.40;99.90;;;;;;5043422;28;19928;-78
2022/12/16 02:05:32;;;;;;;;;;;-0.40;99.90;;;;;;5046153;28;20022;-78
2022/12/16 02:08:00;;;;;;;;;;;-0.40;99.90;;;;;;5044197;28;20547;-78
2022/12/16 02:10:31;;;;;;;;;;;-0.40;99.90;;;;;;5043320;28;19983;-78
2022/12/16 02:13:02;;;;;;;;;;;-0.40;99.90;;;;;;5046508;28;20028;-78
2022/12/16 02:15:33;;;;;;;;;;;-0.50;99.90;;;;;;5049852;28;19928;-77
2022/12/16 02:18:04;;;;;;;;;;;-0.40;99.90;;;;;;5052081;28;20384;-77
2022/12/16 02:20:58;;;;;;;;;;;-0.40;99.90;;;;;;5059499;28;19939;-77
2022/12/16 02:23:35;;;;;;;;;;;-0.40;99.90;;;;;;5041992;28;19929;-78
2022/12/16 02:26:08;;;;;;;;;;;-0.40;99.90;;;;;;5044425;28;19983;-78
2022/12/16 02:28:47;;;;;;;;;;;-0.40;99.90;;;;;;5043290;28;19932;-78
2022/12/16 02:31:19;;;;;;;;;;;-0.40;99.90;;;;;;5040514;28;19928;-77
2022/12/16 02:34:09;;;;;;;;;;;-0.40;99.90;;;;;;5039360;28;19936;-78
2022/12/16 02:36:53;;;;;;;;;;;-0.40;99.90;;;;;;5030493;28;20408;-78
2022/12/16 02:39:21;;;;;;;;;;;-0.50;99.90;;;;;;5036746;28;19929;-77
2022/12/16 02:41:50;;;;;;;;;;;-0.40;99.90;;;;;;5039412;28;20559;-78
2022/12/16 02:44:17;;;;;;;;;;;-0.50;99.90;;;;;;5041821;28;20309;-78
2022/12/16 02:46:52;;;;;;;;;;;-0.50;99.90;;;;;;5041957;28;19928;-78
2022/12/16 02:49:52;;;;;;;;;;;-0.50;99.90;;;;;;5041594;28;20657;-78
2022/12/16 02:52:20;;;;;;;;;;;-0.40;99.90;;;;;;4979263;28;19932;-78
2022/12/16 02:54:47;;;;;;;;;;;-0.50;99.90;;;;;;4984525;28;20002;-78
2022/12/16 02:57:23;;;;;;;;;;;-0.50;99.90;;;;;;5011273;28;19936;-77
2022/12/16 02:59:55;;;;;;;;;;;-0.50;99.90;;;;;;5043227;28;20401;-78
2022/12/16 03:02:25;;;;;;;;;;;-0.50;99.90;;;;;;5036926;28;19939;-77
2022/12/16 03:04:54;;;;;;;;;;;-0.50;99.90;;;;;;5037847;28;19939;-78
2022/12/16 03:07:22;;;;;;;;;;;-0.50;99.90;;;;;;5039539;28;19931;-78
2022/12/16 03:09:50;;;;;;;;;;;-0.50;99.90;;;;;;5042302;28;19936;-78
2022/12/16 03:12:17;;;;;;;;;;;-0.50;99.90;;;;;;5041911;28;19928;-78
2022/12/16 03:14:46;;;;;;;;;;;-0.50;99.90;;;;;;5042949;28;20592;-78
2022/12/16 03:17:13;;;;;;;;;;;-0.50;99.90;;;;;;5036748;28;19928;-78
2022/12/16 03:19:44;;;;;;;;;;;-0.50;99.90;;;;;;5041035;28;20396;-78
2022/12/16 03:22:13;;;;;;;;;;;-0.50;99.90;;;;;;5043584;28;19936;-78
2022/12/16 03:24:40;;;;;;;;;;;-0.50;99.90;;;;;;5041514;28;19940;-78
2022/12/16 03:27:09;;;;;;;;;;;-0.50;99.90;;;;;;5042241;28;20003;-78
2022/12/16 03:29:38;;;;;;;;;;;-0.50;99.90;;;;;;5042716;28;19938;-78
2022/12/16 03:32:06;;;;;;;;;;;-0.50;99.90;;;;;;5041533;28;19928;-78
2022/12/16 03:34:35;;;;;;;;;;;-0.50;99.90;;;;;;5043930;28;19933;-78
2022/12/16 03:37:04;;;;;;;;;;;-0.50;99.90;;;;;;5043270;28;19929;-78
2022/12/16 03:39:32;;;;;;;;;;;-0.50;99.90;;;;;;5038980;28;19929;-78
2022/12/16 03:42:01;;;;;;;;;;;-0.50;99.90;;;;;;5044478;28;19940;-78
2022/12/16 03:44:27;;;;;;;;;;;-0.50;99.90;;;;;;5042420;28;19932;-78
2022/12/16 03:46:54;;;;;;;;;;;-0.60;99.90;;;;;;5039931;28;19928;-78
2022/12/16 03:49:21;;;;;;;;;;;-0.60;99.90;;;;;;5041854;28;19929;-78
2022/12/16 03:51:47;;;;;;;;;;;-0.50;99.90;;;;;;5043201;28;20726;-78
2022/12/16 03:54:17;;;;;;;;;;;-0.50;99.90;;;;;;5045339;28;19936;-77
2022/12/16 03:56:44;;;;;;;;;;;-0.50;99.90;;;;;;5043012;28;19928;-78
2022/12/16 03:59:10;;;;;;;;;;;-0.60;99.90;;;;;;5040141;28;19960;-78
2022/12/16 04:01:37;;;;;;;;;;;-0.50;99.90;;;;;;5043809;28;19932;-78
2022/12/16 04:04:04;;;;;;;;;;;-0.60;99.90;;;;;;5043946;28;19928;-78
2022/12/16 04:06:30;;;;;;;;;;;-0.60;99.90;;;;;;5050642;28;19936;-78
2022/12/16 04:08:57;;;;;;;;;;;-0.60;99.90;;;;;;5050025;28;19933;-77
2022/12/16 04:25:10;;;;;;;;;;;-0.60;99.90;;;;;;5038673;28;20031;-78
2022/12/16 04:27:38;;;;;;;;;;;-0.60;99.90;;;;;;5039021;28;19928;-78
2022/12/16 04:30:20;;;;;;;;;;;-0.60;99.90;;;;;;5036965;28;19939;-78
